Time;durP1;ratioP1;P1;durP2;ratioP2;P2;SDS_P1;SDS_P2;PMS_P1;PMS_P2;Temp;Humidity;BMP_temperature;BMP_pressure;BME280_temperature;BME280_humidity;BME280_pressure;Samples;Min_cycle;Max_cycle;Signal;HPM_P1;HPM_P2
2023/04/26 03:02:17;;;;;;;1.92;0.20;;;8.50;95.40;;;;;;5431259;23;94565;-69
2023/04/26 03:04:42;;;;;;;0.63;0.10;;;8.40;95.50;;;;;;4870339;28;93578;-69
2023/04/26 03:07:08;;;;;;;1.55;0.10;;;8.40;95.50;;;;;;4871481;28;92526;-69
2023/04/26 03:09:36;;;;;;;1.13;0.20;;;8.40;95.00;;;;;;4868818;28;93856;-68
2023/04/26 03:12:02;;;;;;;1.10;0.20;;;8.50;95.50;;;;;;4869256;28;93213;-69
2023/04/26 03:14:28;;;;;;;0.80;0.10;;;8.50;95.40;;;;;;4869166;28;92791;-70
2023/04/26 03:16:54;;;;;;;3.72;0.20;;;8.60;95.20;;;;;;4871571;28;92616;-70
2023/04/26 03:19:20;;;;;;;1.13;0.10;;;8.60;94.90;;;;;;4871514;28;93251;-69
2023/04/26 03:21:45;;;;;;;0.95;0.20;;;8.50;94.80;;;;;;4870399;28;92840;-69
2023/04/26 03:24:11;;;;;;;1.27;0.20;;;8.50;94.80;;;;;;4872770;28;92557;-69
2023/04/26 03:26:37;;;;;;;1.80;0.20;;;8.50;95.40;;;;;;4872446;28;92036;-69
2023/04/26 03:29:03;;;;;;;2.33;0.20;;;8.50;95.40;;;;;;4853192;28;94246;-69
2023/04/26 03:31:30;;;;;;;1.00;0.20;;;8.50;95.20;;;;;;4872475;28;93551;-69
2023/04/26 03:33:55;;;;;;;1.02;0.17;;;8.40;95.60;;;;;;4868736;28;94092;-70
2023/04/26 03:36:21;;;;;;;1.30;0.20;;;8.40;95.80;;;;;;4870798;28;92547;-70
2023/04/26 03:38:47;;;;;;;1.05;0.20;;;8.40;96.00;;;;;;4871569;28;93255;-69
2023/04/26 03:41:13;;;;;;;1.60;0.30;;;8.40;95.90;;;;;;4870013;28;92980;-69
2023/04/26 03:43:38;;;;;;;1.27;0.40;;;8.30;96.10;;;;;;4879513;28;92475;-70
2023/04/26 03:46:04;;;;;;;1.40;0.38;;;8.30;96.20;;;;;;4878433;28;91668;-71
2023/04/26 03:48:30;;;;;;;1.60;0.30;;;8.30;96.80;;;;;;4874419;28;93269;-70
2023/04/26 03:50:55;;;;;;;3.00;0.50;;;8.30;96.70;;;;;;4868615;28;92978;-71
2023/04/26 03:53:21;;;;;;;1.95;0.65;;;8.20;97.30;;;;;;4878586;28;93964;-69
2023/04/26 03:55:47;;;;;;;1.98;0.40;;;8.20;97.40;;;;;;4875848;28;94357;-69
2023/04/26 03:58:13;;;;;;;3.63;0.50;;;8.20;97.50;;;;;;4866557;28;92477;-69
2023/04/26 04:00:40;;;;;;;2.97;0.30;;;8.20;97.90;;;;;;4872938;28;92928;-69
2023/04/26 04:03:06;;;;;;;2.58;0.30;;;8.30;97.90;;;;;;4858385;28;92962;-68
2023/04/26 04:05:32;;;;;;;5.28;0.30;;;8.30;97.70;;;;;;4859761;28;92494;-69
2023/04/26 04:07:58;;;;;;;3.33;0.25;;;8.40;97.50;;;;;;4852658;28;92797;-69
2023/04/26 04:10:24;;;;;;;1.58;0.30;;;8.40;97.10;;;;;;4856249;29;92275;-69
2023/04/26 04:12:50;;;;;;;2.05;0.40;;;8.40;97.10;;;;;;4859568;29;92772;-69
2023/04/26 04:15:18;;;;;;;1.45;0.35;;;8.30;97.60;;;;;;4855551;29;92631;-69
2023/04/26 04:17:44;;;;;;;4.70;0.57;;;8.30;97.70;;;;;;4858672;28;93849;-69
2023/04/26 04:20:11;;;;;;;3.60;0.57;;;8.20;97.90;;;;;;4858918;29;94465;-69
2023/04/26 04:22:38;;;;;;;1.55;0.50;;;8.10;98.30;;;;;;4857983;28;92667;-68
2023/04/26 04:25:09;;;;;;;3.70;0.70;;;8.00;98.50;;;;;;4850806;29;92633;-69
2023/04/26 04:27:37;;;;;;;3.47;0.70;;;7.90;99.10;;;;;;4859393;28;92698;-69
2023/04/26 04:30:08;;;;;;;2.38;0.70;;;7.90;99.20;;;;;;4858658;28;92555;-70
2023/04/26 04:32:35;;;;;;;1.90;0.70;;;7.90;99.50;;;;;;4859920;28;92466;-69
2023/04/26 04:35:01;;;;;;;2.30;0.60;;;7.90;99.90;;;;;;4854438;29;91667;-69
2023/04/26 04:37:32;;;;;;;2.20;0.80;;;7.90;99.70;;;;;;4852485;29;95300;-69
2023/04/26 04:39:58;;;;;;;2.90;0.82;;;8.00;99.80;;;;;;4859336;28;93624;-68
2023/04/26 04:42:26;;;;;;;2.90;0.85;;;8.00;99.80;;;;;;4846678;28;93485;-69
2023/04/26 04:44:52;;;;;;;3.83;0.80;;;8.10;99.40;;;;;;4858677;29;93980;-69
2023/04/26 04:47:17;;;;;;;2.17;0.70;;;8.10;99.50;;;;;;4847615;29;96292;-69
2023/04/26 04:49:44;;;;;;;4.40;0.63;;;8.20;99.10;;;;;;4836247;29;92828;-69
2023/04/26 04:52:09;;;;;;;2.70;0.73;;;8.30;98.40;;;;;;4856507;29;92428;-70
2023/04/26 04:54:35;;;;;;;2.00;0.55;;;8.40;98.90;;;;;;4857943;29;93341;-70
2023/04/26 04:57:02;;;;;;;1.80;0.40;;;8.60;98.00;;;;;;4857040;29;93618;-70
2023/04/26 04:59:28;;;;;;;1.75;0.40;;;8.60;96.90;;;;;;4856796;28;92760;-70
2023/04/26 05:01:54;;;;;;;2.00;0.38;;;8.70;96.80;;;;;;4855044;29;93652;-69
2023/04/26 05:04:20;;;;;;;2.00;0.57;;;8.70;96.40;;;;;;4848920;29;92730;-70
2023/04/26 05:06:46;;;;;;;1.98;0.65;;;8.70;95.90;;;;;;4850784;29;94561;-70
2023/04/26 05:09:11;;;;;;;2.17;0.40;;;8.80;95.90;;;;;;4858141;29;93279;-70
2023/04/26 05:11:37;;;;;;;3.47;0.60;;;8.90;95.70;;;;;;4864130;28;92543;-70
2023/04/26 05:14:03;;;;;;;4.25;0.68;;;9.20;94.40;;;;;;4860087;28;92542;-70
2023/04/26 05:16:29;;;;;;;3.60;0.80;;;9.30;93.90;;;;;;4850713;29;93211;-70
2023/04/26 05:18:54;;;;;;;3.17;0.70;;;9.40;93.20;;;;;;4862144;29;92802;-70
2023/04/26 05:21:22;;;;;;;3.30;0.47;;;9.60;92.80;;;;;;4862193;28;92353;-70
2023/04/26 05:23:47;;;;;;;3.22;0.40;;;10.00;92.80;;;;;;4862745;28;91708;-70
2023/04/26 05:26:15;;;;;;;1.52;0.30;;;11.50;90.40;;;;;;4859793;28;92915;-71
2023/04/26 05:28:41;;;;;;;1.73;0.20;;;13.30;82.60;;;;;;4849610;29;92475;-71
2023/04/26 05:31:08;;;;;;;0.70;0.17;;;15.00;76.10;;;;;;4856654;28;93481;-71
2023/04/26 05:33:34;;;;;;;1.23;0.35;;;16.40;68.80;;;;;;4866443;28;92234;-71
2023/04/26 05:36:00;;;;;;;0.70;0.20;;;16.50;66.50;;;;;;4864542;28;92984;-71
2023/04/26 05:38:26;;;;;;;1.13;0.20;;;15.90;66.30;;;;;;4857971;29;93347;-71
2023/04/26 05:40:52;;;;;;;1.77;0.30;;;15.50;66.90;;;;;;4862125;28;92501;-71
2023/04/26 05:43:18;;;;;;;1.00;0.20;;;15.20;66.80;;;;;;4861130;29;92861;-71
2023/04/26 05:45:54;;;;;;;1.10;0.28;;;15.60;67.40;;;;;;4853057;28;93210;-71
2023/04/26 05:48:21;;;;;;;1.00;0.40;;;16.10;64.80;;;;;;4859461;29;93472;-71
2023/04/26 05:50:47;;;;;;;1.00;0.40;;;16.20;65.00;;;;;;4857421;29;92099;-71
2023/04/26 05:53:13;;;;;;;1.10;0.20;;;16.50;64.40;;;;;;4867291;28;92400;-72
2023/04/26 05:55:40;;;;;;;0.98;0.30;;;17.00;63.20;;;;;;4865784;28;93704;-72
2023/04/26 05:58:06;;;;;;;2.67;0.63;;;17.00;61.90;;;;;;4864906;28;93968;-72
2023/04/26 06:00:32;;;;;;;2.05;0.77;;;17.10;60.60;;;;;;4861779;28;91988;-71
2023/04/26 06:02:58;;;;;;;1.25;0.77;;;17.60;61.10;;;;;;4864634;28;93152;-72
2023/04/26 06:05:24;;;;;;;1.40;0.60;;;19.10;57.60;;;;;;4851542;28;93481;-72
2023/04/26 06:07:50;;;;;;;1.52;0.70;;;20.30;57.10;;;;;;4848485;28;92812;-72
2023/04/26 06:10:16;;;;;;;1.83;0.63;;;21.80;52.90;;;;;;4867123;28;92405;-72
2023/04/26 06:12:43;;;;;;;4.00;0.82;;;22.20;51.10;;;;;;4865643;28;91724;-72
2023/04/26 06:15:09;;;;;;;2.40;0.77;;;21.40;50.00;;;;;;4845133;28;94443;-72
2023/04/26 06:17:35;;;;;;;2.28;0.43;;;20.00;53.10;;;;;;4849942;28;92918;-72
2023/04/26 06:20:01;;;;;;;4.88;0.73;;;18.80;55.40;;;;;;4845849;28;93644;-72
2023/04/26 06:22:27;;;;;;;2.28;0.43;;;18.00;57.80;;;;;;4859892;28;92571;-71
2023/04/26 06:24:53;;;;;;;1.95;0.80;;;17.40;59.30;;;;;;4851714;29;94016;-71
2023/04/26 06:27:18;;;;;;;1.60;0.70;;;16.80;61.80;;;;;;4855777;29;95212;-72
2023/04/26 06:29:45;;;;;;;1.73;0.60;;;16.60;61.90;;;;;;4853340;28;94293;-72
2023/04/26 06:32:10;;;;;;;1.40;0.43;;;17.10;63.20;;;;;;4847386;28;94248;-72
2023/04/26 06:34:36;;;;;;;5.57;0.60;;;18.40;58.10;;;;;;4848242;28;94396;-72
2023/04/26 06:37:05;;;;;;;4.07;0.60;;;18.70;58.10;;;;;;4857070;28;92894;-72
2023/04/26 06:39:31;;;;;;;2.35;0.80;;;18.40;56.90;;;;;;4859905;28;92406;-72
2023/04/26 06:41:57;;;;;;;1.73;0.63;;;18.00;58.20;;;;;;4856233;28;92462;-72
2023/04/26 06:44:22;;;;;;;3.50;1.25;;;17.90;59.40;;;;;;4851658;28;93648;-72
2023/04/26 06:46:48;;;;;;;6.30;1.42;;;18.00;59.00;;;;;;4865697;28;93767;-72
2023/04/26 06:49:14;;;;;;;5.10;1.00;;;18.60;57.10;;;;;;4861311;28;92941;-72
2023/04/26 06:51:40;;;;;;;3.60;1.08;;;18.50;57.40;;;;;;4847089;28;92511;-72
2023/04/26 06:54:06;;;;;;;2.53;1.00;;;19.40;56.30;;;;;;4853317;28;94272;-71
2023/04/26 06:56:32;;;;;;;1.95;1.02;;;19.40;56.20;;;;;;4864508;28;93385;-71
2023/04/26 06:59:00;;;;;;;2.90;1.30;;;19.50;55.50;;;;;;4850735;29;92437;-71
2023/04/26 07:01:27;;;;;;;3.05;0.95;;;19.00;54.80;;;;;;4859455;28;91705;-71
2023/04/26 07:03:55;;;;;;;2.85;1.10;;;18.90;57.10;;;;;;4857177;29;94160;-72
2023/04/26 07:06:20;;;;;;;2.58;1.10;;;18.70;56.90;;;;;;4848067;28;92980;-71
2023/04/26 07:08:46;;;;;;;2.38;1.05;;;18.80;56.50;;;;;;4856850;28;94324;-72
2023/04/26 07:11:12;;;;;;;3.33;1.17;;;19.40;55.60;;;;;;4859708;28;92727;-71
2023/04/26 07:13:38;;;;;;;6.22;1.25;;;19.30;52.90;;;;;;4859510;29;93119;-71
2023/04/26 07:16:04;;;;;;;2.50;1.02;;;18.90;54.80;;;;;;4849296;29;92906;-71
2023/04/26 07:18:30;;;;;;;5.05;1.23;;;19.00;55.50;;;;;;4858882;29;92381;-71
2023/04/26 07:20:56;;;;;;;3.50;0.90;;;20.30;52.60;;;;;;4858327;28;92461;-71
2023/04/26 07:23:22;;;;;;;2.50;1.02;;;20.90;50.80;;;;;;4863861;28;93688;-71
2023/04/26 07:25:47;;;;;;;1.75;0.73;;;21.80;50.80;;;;;;4869170;28;92317;-71
2023/04/26 07:28:13;;;;;;;1.40;0.80;;;22.00;50.10;;;;;;4859471;29;92495;-71
2023/04/26 07:30:39;;;;;;;1.42;0.77;;;21.60;49.10;;;;;;4856494;29;92160;-72
2023/04/26 07:33:05;;;;;;;1.35;0.70;;;21.60;50.40;;;;;;4855420;29;93455;-71
2023/04/26 07:35:30;;;;;;;2.78;0.98;;;22.00;48.90;;;;;;4858304;29;94484;-71
2023/04/26 07:37:56;;;;;;;1.48;0.82;;;22.50;47.90;;;;;;4857962;29;92609;-71
2023/04/26 07:40:23;;;;;;;1.95;0.65;;;22.40;46.80;;;;;;4860653;28;92788;-71
2023/04/26 07:42:49;;;;;;;2.47;0.85;;;22.30;48.10;;;;;;4863961;28;92768;-73
2023/04/26 07:45:15;;;;;;;2.30;0.85;;;22.70;48.70;;;;;;4868223;28;92917;-72
2023/04/26 07:47:41;;;;;;;2.15;1.02;;;23.20;47.20;;;;;;4870052;28;92600;-72
2023/04/26 07:50:08;;;;;;;2.00;1.00;;;23.60;48.30;;;;;;4857496;29;91902;-72
2023/04/26 07:52:33;;;;;;;1.77;0.73;;;23.60;48.50;;;;;;4858281;28;93765;-72
2023/04/26 07:54:59;;;;;;;2.40;1.15;;;25.00;44.40;;;;;;4859034;28;92433;-72
2023/04/26 07:57:24;;;;;;;2.95;0.70;;;26.90;43.40;;;;;;4858976;29;93546;-72
2023/04/26 07:59:50;;;;;;;3.70;0.90;;;26.80;43.90;;;;;;4859087;29;92740;-72
2023/04/26 08:02:16;;;;;;;2.17;1.13;;;26.20;43.70;;;;;;4856776;28;94190;-72
2023/04/26 08:04:48;;;;;;;2.05;0.93;;;26.30;44.30;;;;;;4859427;28;93820;-73
2023/04/26 08:07:15;;;;;;;1.83;0.93;;;25.70;44.60;;;;;;4852577;29;94322;-73
2023/04/26 08:09:41;;;;;;;2.10;0.85;;;25.40;43.60;;;;;;4855783;28;93260;-73
2023/04/26 08:12:07;;;;;;;2.80;1.10;;;24.40;45.20;;;;;;4842983;29;96967;-73
2023/04/26 08:14:34;;;;;;;1.92;0.98;;;23.80;46.50;;;;;;4860286;28;93188;-73
2023/04/26 08:17:00;;;;;;;1.58;0.90;;;23.50;47.40;;;;;;4859161;28;92501;-73
2023/04/26 08:19:29;;;;;;;5.00;0.63;;;22.80;48.40;;;;;;4858432;28;92563;-72
2023/04/26 08:21:55;;;;;;;1.83;0.73;;;21.70;50.10;;;;;;4858358;29;95492;-72
2023/04/26 08:24:21;;;;;;;2.35;0.52;;;20.90;52.30;;;;;;4857639;28;93821;-71
2023/04/26 08:26:47;;;;;;;2.60;0.73;;;20.60;53.50;;;;;;4858868;28;93043;-72
2023/04/26 08:29:13;;;;;;;1.73;0.65;;;20.30;54.90;;;;;;4859315;28;92991;-72
2023/04/26 08:31:40;;;;;;;2.22;0.77;;;20.30;54.60;;;;;;4856329;28;92662;-72
2023/04/26 08:34:09;;;;;;;3.00;0.90;;;20.00;54.30;;;;;;4857699;29;92506;-73
2023/04/26 08:36:36;;;;;;;3.92;1.13;;;20.00;55.10;;;;;;4858907;28;92544;-73
2023/04/26 08:39:03;;;;;;;4.80;1.10;;;23.10;51.30;;;;;;4859482;28;91753;-74
2023/04/26 08:41:34;;;;;;;1.50;0.85;;;24.60;47.80;;;;;;4853720;29;93674;-73
2023/04/26 08:44:03;;;;;;;2.88;1.30;;;24.30;46.40;;;;;;4853122;28;92797;-72
2023/04/26 08:46:54;;;;;;;6.63;1.52;;;25.10;47.40;;;;;;4861363;28;93306;-73
2023/04/26 08:49:35;;;;;;;1.80;1.20;;;25.80;46.20;;;;;;4861575;28;92836;-73
2023/04/26 08:52:03;;;;;;;2.15;1.17;;;27.60;43.40;;;;;;4865370;28;92757;-73
2023/04/26 08:54:30;;;;;;;2.40;1.02;;;27.40;42.00;;;;;;4864565;28;92974;-73
2023/04/26 08:56:58;;;;;;;3.00;1.67;;;30.10;41.80;;;;;;4850545;29;92719;-73
2023/04/26 08:59:24;;;;;;;5.15;1.73;;;31.50;39.70;;;;;;4859168;29;92494;-73
2023/04/26 09:01:51;;;;;;;1.95;0.90;;;31.50;38.40;;;;;;4861573;28;94608;-73
2023/04/26 09:04:16;;;;;;;1.60;0.77;;;30.20;37.90;;;;;;4878513;28;92829;-72
2023/04/26 09:06:43;;;;;;;4.07;1.40;;;27.80;39.50;;;;;;4858330;28;92447;-73
2023/04/26 09:09:10;;;;;;;3.67;1.13;;;26.00;42.10;;;;;;4858330;28;93587;-73
2023/04/26 09:11:56;;;;;;;3.03;1.02;;;24.50;44.00;;;;;;4865880;28;93516;-72
2023/04/26 09:14:23;;;;;;;3.53;1.13;;;22.90;46.80;;;;;;4854673;28;94887;-72
2023/04/26 09:16:48;;;;;;;2.25;1.00;;;21.80;48.20;;;;;;4859427;28;92862;-72
2023/04/26 09:19:14;;;;;;;2.45;1.23;;;21.90;50.50;;;;;;4859367;28;92738;-71
2023/04/26 09:21:45;;;;;;;2.58;1.10;;;21.60;50.20;;;;;;4859370;28;92752;-72
2023/04/26 09:24:12;;;;;;;2.97;0.82;;;23.00;49.70;;;;;;4858254;28;92893;-72
2023/04/26 09:26:37;;;;;;;2.67;1.05;;;25.00;46.40;;;;;;4856213;28;93873;-72
2023/04/26 09:29:19;;;;;;;3.35;0.88;;;24.10;45.10;;;;;;4858113;28;91441;-72
2023/04/26 09:31:47;;;;;;;3.45;1.02;;;23.00;47.10;;;;;;4859832;28;93526;-71
2023/04/26 09:34:14;;;;;;;2.45;1.17;;;22.20;48.50;;;;;;4858868;28;92417;-71
2023/04/26 09:36:51;;;;;;;2.40;1.25;;;21.30;49.70;;;;;;4867707;28;93607;-71
2023/04/26 09:39:33;;;;;;;2.30;1.25;;;21.50;50.90;;;;;;4864475;28;92649;-72
2023/04/26 09:41:59;;;;;;;2.97;1.02;;;20.90;52.20;;;;;;4850968;29;95372;-71
2023/04/26 09:44:25;;;;;;;3.50;1.10;;;20.40;51.60;;;;;;4865907;28;92565;-70
2023/04/26 09:47:00;;;;;;;2.78;1.23;;;19.80;53.00;;;;;;4880597;28;92374;-71
2023/04/26 09:49:27;;;;;;;2.33;1.10;;;19.40;53.30;;;;;;4862421;28;93822;-71
2023/04/26 09:52:19;;;;;;;2.58;1.13;;;19.00;54.60;;;;;;4870461;28;92668;-71
2023/04/26 09:54:44;;;;;;;2.58;0.98;;;18.80;54.80;;;;;;4870347;28;92355;-71
2023/04/26 09:57:12;;;;;;;2.03;0.80;;;18.60;55.80;;;;;;4862646;28;92400;-71
2023/04/26 09:59:55;;;;;;;3.28;0.80;;;20.20;55.40;;;;;;4861950;28;92756;-71
2023/04/26 10:02:26;;;;;;;2.33;1.05;;;19.80;51.60;;;;;;4863544;28;94239;-71
2023/04/26 10:04:54;;;;;;;1.85;0.85;;;19.50;52.80;;;;;;4857847;29;94018;-72
2023/04/26 10:07:22;;;;;;;4.47;0.65;;;19.30;53.50;;;;;;4853685;29;93321;-71
2023/04/26 10:09:48;;;;;;;3.80;0.95;;;19.30;54.90;;;;;;4860518;28;92632;-72
2023/04/26 10:12:16;;;;;;;2.80;1.05;;;20.20;54.20;;;;;;4859707;28;92972;-71
2023/04/26 10:14:43;;;;;;;3.63;1.38;;;20.30;53.20;;;;;;4860859;29;92779;-71
2023/04/26 10:17:13;;;;;;;3.85;1.20;;;20.70;53.40;;;;;;4861439;29;92715;-71
2023/04/26 10:19:43;;;;;;;1.70;0.95;;;20.60;54.00;;;;;;4860368;28;91446;-71
2023/04/26 10:22:15;;;;;;;2.20;0.70;;;20.40;51.20;;;;;;4858798;29;93869;-70
2023/04/26 10:24:43;;;;;;;2.50;1.02;;;20.20;52.50;;;;;;4860613;28;93202;-70
2023/04/26 10:27:08;;;;;;;2.38;0.80;;;20.30;53.30;;;;;;4855656;28;94873;-72
2023/04/26 10:29:53;;;;;;;2.20;1.27;;;20.50;53.90;;;;;;4851698;28;92503;-72
2023/04/26 10:32:22;;;;;;;3.05;1.15;;;19.90;53.00;;;;;;4851023;29;95614;-71
2023/04/26 10:35:08;;;;;;;;;;;19.40;55.90;;;;;;4850857;28;93297;-72
2023/04/26 10:37:34;;;;;;;3.03;0.60;;;19.10;54.80;;;;;;4846315;29;92610;-71
2023/04/26 10:40:26;;;;;;;3.08;1.05;;;18.70;55.50;;;;;;4851511;28;94072;-71
2023/04/26 10:43:15;;;;;;;4.75;0.93;;;19.00;54.10;;;;;;4852242;29;92496;-72
2023/04/26 10:45:42;;;;;;;2.05;0.60;;;19.40;55.10;;;;;;4841022;28;93820;-72
2023/04/26 10:48:17;;;;;;;1.85;0.73;;;19.60;53.20;;;;;;4848594;28;93194;-72
2023/04/26 10:51:04;;;;;;;1.88;0.30;;;19.50;49.20;;;;;;4846585;29;93104;-71
2023/04/26 10:53:31;;;;;;;2.25;0.47;;;19.10;50.60;;;;;;4833387;29;94840;-71
2023/04/26 10:55:57;;;;;;;1.58;0.43;;;19.00;49.90;;;;;;4847053;29;93418;-72
2023/04/26 10:58:32;;;;;;;2.60;0.40;;;18.80;50.20;;;;;;4843667;28;92683;-71
2023/04/26 11:01:19;;;;;;;3.33;0.40;;;18.80;49.80;;;;;;4851864;28;92197;-71
2023/04/26 11:03:57;;;;;;;1.48;0.30;;;18.90;49.50;;;;;;4858552;28;93543;-71
2023/04/26 11:06:24;;;;;;;1.55;0.30;;;19.50;50.00;;;;;;4859048;28;93740;-71
2023/04/26 11:08:50;;;;;;;2.40;0.30;;;20.00;49.10;;;;;;4851320;28;92514;-72
2023/04/26 11:11:18;;;;;;;1.90;0.20;;;20.30;48.30;;;;;;4854379;28;91427;-71
2023/04/26 11:13:45;;;;;;;1.30;0.22;;;19.80;48.00;;;;;;4852763;28;93127;-72
2023/04/26 11:16:15;;;;;;;3.10;0.45;;;19.30;46.50;;;;;;4854094;28;92923;-71
2023/04/26 11:18:45;;;;;;;1.10;0.25;;;19.00;44.90;;;;;;4856862;28;93270;-71
2023/04/26 11:21:14;;;;;;;1.55;0.20;;;19.00;46.50;;;;;;4857349;29;92391;-71
2023/04/26 11:23:39;;;;;;;1.50;0.35;;;19.00;48.20;;;;;;4857399;28;93303;-71
2023/04/26 11:26:07;;;;;;;1.80;0.28;;;19.30;49.50;;;;;;4858438;28;92541;-71
2023/04/26 11:28:37;;;;;;;2.58;0.30;;;19.20;47.90;;;;;;4862409;28;93962;-71
2023/04/26 11:31:05;;;;;;;2.25;0.28;;;19.50;48.50;;;;;;4849024;28;92421;-70
2023/04/26 11:33:33;;;;;;;2.13;0.35;;;19.70;51.20;;;;;;4856830;28;92699;-71
2023/04/26 11:35:59;;;;;;;2.58;0.35;;;19.80;47.50;;;;;;4860442;28;93009;-71
2023/04/26 11:38:26;;;;;;;1.65;0.35;;;19.60;45.70;;;;;;4874669;28;92603;-71
2023/04/26 11:41:02;;;;;;;2.65;0.40;;;19.30;48.40;;;;;;4869810;28;92373;-71
2023/04/26 11:43:35;;;;;;;2.00;0.35;;;19.30;49.00;;;;;;4856557;28;93994;-71
2023/04/26 11:46:01;;;;;;;2.40;0.50;;;19.30;47.20;;;;;;4866590;28;93384;-71
2023/04/26 11:48:29;;;;;;;1.50;0.38;;;19.00;48.30;;;;;;4852418;28;93361;-72
2023/04/26 11:50:57;;;;;;;3.53;0.43;;;18.90;47.70;;;;;;4847260;29;92502;-70
2023/04/26 11:53:24;;;;;;;2.17;0.32;;;18.90;49.20;;;;;;4862076;28;94346;-71
2023/04/26 11:55:50;;;;;;;2.80;0.30;;;19.20;48.80;;;;;;4862348;28;92871;-71
2023/04/26 11:58:16;;;;;;;1.52;0.32;;;19.30;45.90;;;;;;4866799;28;93444;-71
2023/04/26 12:01:01;;;;;;;2.42;0.20;;;19.50;49.60;;;;;;4874617;28;91756;-70
2023/04/26 12:03:36;;;;;;;1.85;0.28;;;19.80;48.20;;;;;;4859958;28;93189;-70
2023/04/26 12:06:05;;;;;;;3.40;0.40;;;19.80;48.70;;;;;;4865234;28;92450;-71
2023/04/26 12:08:32;;;;;;;3.15;0.47;;;19.50;46.30;;;;;;4851048;29;93541;-71
2023/04/26 12:11:00;;;;;;;3.65;0.50;;;19.40;47.40;;;;;;4860834;28;92228;-71
2023/04/26 12:13:31;;;;;;;1.85;0.32;;;19.30;46.00;;;;;;4857082;28;92630;-70
2023/04/26 12:15:57;;;;;;;2.50;0.40;;;19.20;46.10;;;;;;4857228;28;94499;-73
2023/04/26 12:18:29;;;;;;;2.47;0.50;;;19.20;49.10;;;;;;4855022;28;92553;-70
2023/04/26 12:20:58;;;;;;;1.63;0.20;;;19.30;44.00;;;;;;4854685;28;94289;-71
2023/04/26 12:23:24;;;;;;;2.00;0.40;;;19.50;46.90;;;;;;4856163;29;94211;-72
2023/04/26 12:25:55;;;;;;;2.70;0.30;;;19.70;46.20;;;;;;4860991;28;92296;-72
2023/04/26 12:28:22;;;;;;;3.63;0.47;;;19.80;45.90;;;;;;4856599;29;92452;-72
2023/04/26 12:30:48;;;;;;;2.47;0.32;;;20.10;46.50;;;;;;4856785;28;92360;-72
2023/04/26 12:33:15;;;;;;;2.78;0.35;;;20.00;45.90;;;;;;4855324;28;94145;-71
2023/04/26 12:35:41;;;;;;;2.47;0.35;;;19.70;47.40;;;;;;4858328;28;93949;-71
2023/04/26 12:38:06;;;;;;;2.53;0.45;;;19.30;46.70;;;;;;4854029;28;92987;-71
2023/04/26 12:40:32;;;;;;;2.20;0.43;;;19.50;48.20;;;;;;4856863;29;92723;-72
2023/04/26 12:42:58;;;;;;;2.10;0.50;;;19.70;46.10;;;;;;4856070;29;94156;-72
2023/04/26 12:45:25;;;;;;;2.40;0.30;;;19.70;45.80;;;;;;4852138;28;92760;-72
2023/04/26 12:47:52;;;;;;;4.20;0.40;;;19.60;45.70;;;;;;4847302;29;92661;-72
2023/04/26 12:50:18;;;;;;;3.42;0.50;;;19.20;46.30;;;;;;4855710;28;92204;-72
2023/04/26 12:52:44;;;;;;;2.88;0.40;;;19.20;46.80;;;;;;4855266;29;96143;-72
2023/04/26 12:55:11;;;;;;;2.38;0.65;;;19.00;48.00;;;;;;4860600;28;92811;-71
2023/04/26 12:57:40;;;;;;;2.83;0.32;;;19.10;46.50;;;;;;4863523;28;93552;-71
2023/04/26 13:00:08;;;;;;;4.78;0.40;;;19.20;46.80;;;;;;4863286;28;93329;-71
2023/04/26 13:02:34;;;;;;;1.98;0.32;;;19.10;47.70;;;;;;4864756;28;94857;-72
2023/04/26 13:05:03;;;;;;;3.25;0.43;;;19.20;46.10;;;;;;4866249;28;92577;-71
2023/04/26 13:07:33;;;;;;;2.38;0.32;;;19.20;47.00;;;;;;4859050;29;92357;-71
2023/04/26 13:09:59;;;;;;;3.05;0.40;;;19.10;45.60;;;;;;4860191;28;92706;-71
2023/04/26 13:12:25;;;;;;;1.77;0.22;;;19.00;46.90;;;;;;4855349;28;93589;-72
2023/04/26 13:14:51;;;;;;;2.40;0.20;;;19.20;48.30;;;;;;4859674;28;93781;-71
2023/04/26 13:17:17;;;;;;;3.33;0.40;;;18.90;46.70;;;;;;4858706;28;92034;-70
2023/04/26 13:19:42;;;;;;;2.40;0.30;;;18.70;47.20;;;;;;4859020;29;92511;-71
2023/04/26 13:22:10;;;;;;;3.67;0.75;;;18.80;47.00;;;;;;4852416;28;94972;-71
2023/04/26 13:24:36;;;;;;;2.15;0.30;;;18.90;48.00;;;;;;4861817;28;93357;-71
2023/04/26 13:27:02;;;;;;;3.67;0.40;;;18.90;46.70;;;;;;4862505;28;92372;-71
2023/04/26 13:29:30;;;;;;;4.97;0.47;;;18.80;47.00;;;;;;4868591;28;93349;-71
2023/04/26 13:31:56;;;;;;;4.05;0.70;;;18.70;47.30;;;;;;4847911;28;93982;-68
2023/04/26 13:34:22;;;;;;;4.15;0.47;;;18.80;46.20;;;;;;4857121;28;92343;-71
2023/04/26 13:36:48;;;;;;;1.77;0.30;;;18.70;48.20;;;;;;4860145;28;92655;-71
2023/04/26 13:39:13;;;;;;;2.58;0.35;;;18.80;49.10;;;;;;4854954;28;91884;-71
2023/04/26 13:41:39;;;;;;;2.30;0.43;;;18.70;47.60;;;;;;4855959;28;94397;-71
2023/04/26 13:44:05;;;;;;;3.05;0.50;;;18.60;47.30;;;;;;4862168;28;93037;-71
2023/04/26 13:46:31;;;;;;;3.13;0.32;;;18.40;48.10;;;;;;4862716;28;93344;-71
2023/04/26 13:48:56;;;;;;;2.55;0.57;;;18.50;48.60;;;;;;4863356;28;91964;-71
2023/04/26 13:51:24;;;;;;;2.45;0.52;;;18.40;47.30;;;;;;4858523;28;92827;-71
2023/04/26 13:53:50;;;;;;;1.77;0.57;;;18.40;48.80;;;;;;4856273;28;93297;-71
2023/04/26 13:56:18;;;;;;;2.80;0.50;;;18.40;48.50;;;;;;4860177;28;92400;-71
2023/04/26 13:58:44;;;;;;;3.83;0.40;;;18.20;49.00;;;;;;4860050;28;92426;-71
2023/04/26 14:01:12;;;;;;;3.00;0.40;;;18.10;47.40;;;;;;4860391;29;93109;-71
2023/04/26 14:03:37;;;;;;;2.53;0.77;;;18.20;49.00;;;;;;4858058;28;92918;-71
2023/04/26 14:06:03;;;;;;;2.55;0.43;;;18.10;47.90;;;;;;4860600;28;92730;-71
2023/04/26 14:08:29;;;;;;;3.72;0.60;;;18.10;48.80;;;;;;4856830;28;92729;-71
2023/04/26 14:10:55;;;;;;;3.28;0.70;;;17.90;48.70;;;;;;4871812;28;93613;-71
2023/04/26 14:13:20;;;;;;;11.95;4.85;;;17.90;50.00;;;;;;4861644;28;94463;-71
2023/04/26 14:15:47;;;;;;;4.25;1.98;;;18.10;48.30;;;;;;4872279;28;92457;-71
2023/04/26 14:18:12;;;;;;;5.35;1.70;;;18.10;48.10;;;;;;4880233;28;92546;-71
2023/04/26 14:20:38;;;;;;;5.35;0.80;;;18.00;48.00;;;;;;4864482;28;93173;-71
2023/04/26 14:23:04;;;;;;;3.58;1.17;;;18.00;48.30;;;;;;4873815;28;93402;-71
2023/04/26 14:25:30;;;;;;;4.38;0.70;;;17.90;48.10;;;;;;4842640;28;92100;-71
2023/04/26 14:27:55;;;;;;;3.92;0.43;;;17.90;50.50;;;;;;4852087;28;91843;-71
2023/04/26 14:30:21;;;;;;;3.15;0.60;;;18.00;49.50;;;;;;4859602;28;93245;-72
2023/04/26 14:32:47;;;;;;;7.15;0.98;;;18.10;47.80;;;;;;4855149;28;94753;-70
2023/04/26 14:35:12;;;;;;;2.13;0.30;;;18.20;49.40;;;;;;4852555;29;93219;-71
2023/04/26 14:37:38;;;;;;;1.65;0.45;;;18.30;47.90;;;;;;4852962;29;92354;-71
2023/04/26 14:40:06;;;;;;;4.57;0.50;;;18.30;48.60;;;;;;4859061;28;93311;-72
2023/04/26 14:42:32;;;;;;;5.50;0.80;;;18.20;49.70;;;;;;4858689;28;92882;-70
2023/04/26 14:44:59;;;;;;;5.30;1.33;;;18.30;49.20;;;;;;4863455;28;93441;-71
2023/04/26 14:47:25;;;;;;;2.67;0.60;;;18.20;46.70;;;;;;4871221;28;92759;-70
2023/04/26 14:49:50;;;;;;;5.28;1.00;;;18.20;48.70;;;;;;4860094;28;93201;-70
2023/04/26 14:52:16;;;;;;;6.13;1.92;;;18.10;47.70;;;;;;4876232;28;92373;-71
2023/04/26 14:54:42;;;;;;;3.75;1.23;;;18.10;48.00;;;;;;4864883;28;92633;-71
2023/04/26 14:57:09;;;;;;;5.05;1.15;;;18.10;49.20;;;;;;4860409;28;92354;-72
2023/04/26 14:59:35;;;;;;;3.15;0.55;;;18.00;47.90;;;;;;4861952;28;93640;-71
2023/04/26 15:02:01;;;;;;;2.67;0.50;;;18.00;47.70;;;;;;4873913;28;94177;-72
2023/04/26 15:04:27;;;;;;;2.90;0.47;;;18.10;47.70;;;;;;4871852;28;92454;-72
2023/04/26 15:06:53;;;;;;;4.00;1.00;;;18.00;47.30;;;;;;4859583;28;92644;-71
2023/04/26 15:09:19;;;;;;;3.13;0.40;;;17.90;47.70;;;;;;4856332;28;92722;-71
2023/04/26 15:11:45;;;;;;;5.53;0.47;;;17.80;49.90;;;;;;4856773;28;92859;-71
2023/04/26 15:14:10;;;;;;;3.58;0.50;;;17.70;50.90;;;;;;4860095;28;92609;-72
2023/04/26 15:16:36;;;;;;;7.00;1.10;;;17.60;49.20;;;;;;4858848;28;91599;-72
2023/04/26 15:19:02;;;;;;;3.78;0.50;;;17.60;50.70;;;;;;4859655;28;92794;-71
2023/04/26 15:21:28;;;;;;;2.88;0.52;;;17.50;47.60;;;;;;4861513;28;92923;-70
2023/04/26 15:23:57;;;;;;;1.92;0.40;;;17.50;48.40;;;;;;4859570;28;93818;-72
2023/04/26 15:26:23;;;;;;;1.38;0.63;;;17.40;48.90;;;;;;4859582;28;92653;-71
2023/04/26 15:28:48;;;;;;;3.83;0.55;;;17.50;48.90;;;;;;4855023;28;94564;-70
2023/04/26 15:31:14;;;;;;;2.08;0.40;;;17.40;48.40;;;;;;4868633;28;93312;-71
2023/04/26 15:33:40;;;;;;;1.98;0.22;;;17.50;48.50;;;;;;4866929;28;93047;-70
2023/04/26 15:36:06;;;;;;;9.10;0.45;;;17.50;48.80;;;;;;4879234;28;92501;-71
2023/04/26 15:38:35;;;;;;;2.55;0.30;;;17.40;48.90;;;;;;4861705;28;93061;-71
2023/04/26 15:41:01;;;;;;;2.58;0.40;;;17.30;48.20;;;;;;4870955;28;92233;-71
2023/04/26 15:43:26;;;;;;;2.95;0.40;;;17.20;48.20;;;;;;4878608;28;92478;-71
2023/04/26 15:45:52;;;;;;;2.95;0.40;;;17.10;47.50;;;;;;4863118;28;92466;-70
2023/04/26 15:48:18;;;;;;;3.15;0.30;;;17.10;48.90;;;;;;4858266;28;94592;-69
2023/04/26 15:50:44;;;;;;;2.45;0.20;;;17.10;49.60;;;;;;4867621;28;95885;-70